createdAt,value
2023-03-27T00:03:15.387Z,96.89
2023-03-27T00:15:11.522Z,98.99
2023-03-27T00:27:11.929Z,99.21
2023-03-27T00:39:12.404Z,99.57
2023-03-27T00:51:12.825Z,97.01
2023-03-27T01:03:13.424Z,94.54
2023-03-27T01:15:13.863Z,96.73
2023-03-27T01:27:14.210Z,98.91
2023-03-27T01:39:14.652Z,100.00
2023-03-27T01:51:15.115Z,100.00
2023-03-27T02:03:18.294Z,100.00
2023-03-27T02:15:23.515Z,100.00
2023-03-27T02:27:16.458Z,100.00
2023-03-27T02:39:16.919Z,97.99
2023-03-27T02:51:17.398Z,96.27
2023-03-27T03:03:18.103Z,93.33
2023-03-27T03:15:18.288Z,91.81
2023-03-27T03:27:21.550Z,90.09
2023-03-27T03:39:21.990Z,75.95
2023-03-27T03:51:19.679Z,88.93
2023-03-27T04:03:20.174Z,88.29
2023-03-27T04:15:20.566Z,89.02
2023-03-27T04:27:21.013Z,89.98
2023-03-27T04:39:21.613Z,90.19
2023-03-27T04:51:21.934Z,89.22
2023-03-27T05:03:22.479Z,91.71
2023-03-27T05:15:22.805Z,89.79
2023-03-27T05:27:23.315Z,70.30
2023-03-27T05:39:23.766Z,71.55
2023-03-27T05:51:24.195Z,67.96
2023-03-27T06:03:24.883Z,68.97
2023-03-27T06:15:25.230Z,67.53
2023-03-27T06:27:25.526Z,68.09
2023-03-27T06:39:26.041Z,68.11
2023-03-27T06:51:26.416Z,68.01
2023-03-27T07:03:26.904Z,67.44
2023-03-27T07:15:27.319Z,65.83
2023-03-27T07:27:27.760Z,66.88
2023-03-27T07:39:28.265Z,66.78
2023-03-27T07:51:28.873Z,64.87
2023-03-27T08:03:29.196Z,65.00
2023-03-27T08:15:29.613Z,63.77
2023-03-27T08:27:30.036Z,62.24
2023-03-27T08:39:30.530Z,63.99
2023-03-27T08:51:30.975Z,62.87
2023-03-27T09:03:31.547Z,60.88
2023-03-27T09:15:31.848Z,61.40
2023-03-27T09:27:32.302Z,59.79
2023-03-27T09:39:32.802Z,59.55
2023-03-27T09:51:33.201Z,58.91
2023-03-27T10:03:33.739Z,59.86
2023-03-27T10:15:34.233Z,59.61
2023-03-27T10:27:34.567Z,58.36
2023-03-27T10:39:35.044Z,58.09
2023-03-27T10:51:45.469Z,58.06
2023-03-27T11:03:36.039Z,56.22
2023-03-27T11:15:36.387Z,54.18
2023-03-27T11:27:36.846Z,55.92
2023-03-27T11:51:40.487Z,54.39
2023-03-27T12:03:38.306Z,52.73
2023-03-27T12:15:38.629Z,52.53
2023-03-27T12:27:39.142Z,55.86
2023-03-27T12:39:39.627Z,53.16
2023-03-27T12:51:40.027Z,55.72
2023-03-27T13:03:40.602Z,57.31
2023-03-27T13:15:41.041Z,56.09
2023-03-27T13:27:41.380Z,55.50
2023-03-27T13:39:41.818Z,54.86
2023-03-27T13:51:42.272Z,52.89
2023-03-27T14:03:42.834Z,50.90
2023-03-27T14:15:43.202Z,53.60
2023-03-27T14:27:43.654Z,53.18
2023-03-27T14:39:44.072Z,52.79
2023-03-27T14:51:44.564Z,53.03
2023-03-27T15:03:45.017Z,51.41
2023-03-27T15:15:45.490Z,54.28
2023-03-27T15:27:45.895Z,54.59
2023-03-27T15:39:46.382Z,55.50
2023-03-27T15:51:46.892Z,55.19
2023-03-27T16:03:47.412Z,53.25
2023-03-27T16:15:47.736Z,54.48
2023-03-27T16:27:48.168Z,56.54
2023-03-27T16:39:48.627Z,54.04
2023-03-27T16:51:49.143Z,52.98
2023-03-27T17:03:49.505Z,53.36
2023-03-27T17:15:50.009Z,52.47
2023-03-27T17:27:50.475Z,52.36
2023-03-27T17:39:50.883Z,52.90
2023-03-27T17:51:51.321Z,50.23
2023-03-27T18:03:51.899Z,48.58
2023-03-27T18:15:52.260Z,47.82
2023-03-27T18:27:52.701Z,46.68
2023-03-27T18:39:53.162Z,47.00
2023-03-27T18:51:53.592Z,49.69
2023-03-27T19:03:54.045Z,54.75
2023-03-27T19:15:54.496Z,56.19
2023-03-27T19:27:54.957Z,55.33
2023-03-27T19:39:55.407Z,51.01
2023-03-27T19:51:55.886Z,50.77
2023-03-27T20:03:59.137Z,50.97
2023-03-27T20:15:56.907Z,50.40
2023-03-27T20:27:57.268Z,50.64
2023-03-27T20:39:57.692Z,51.90
2023-03-27T20:51:58.110Z,51.65
2023-03-27T21:03:58.806Z,51.97
2023-03-27T21:15:59.202Z,51.05
2023-03-27T21:28:01.694Z,51.96
2023-03-27T21:40:02.732Z,52.07
2023-03-27T21:52:00.382Z,52.73
2023-03-27T22:04:00.863Z,54.43
2023-03-27T22:16:01.621Z,53.63
2023-03-27T22:28:06.456Z,55.70
2023-03-27T22:40:02.188Z,58.13
2023-03-27T22:52:02.649Z,58.12
2023-03-27T23:04:03.183Z,58.36
2023-03-27T23:16:03.539Z,59.38
2023-03-27T23:28:04.010Z,62.91
2023-03-27T23:40:04.529Z,69.00
2023-03-27T23:52:04.854Z,57.46
